CheckWX is a tool to help pilots better visualize weather data.  It is not intended as a substitute for an official pre-flight weather briefing.

16:50:50 UTC

1M4 METAR
Posey Field Airport
Haleyville, Alabama, USA
Current

55 mins ago

K1M4 131556Z AUTO 15008KT 10SM CLR 01/M07 A3034 RMK AO2 SLP938 T00061072
Observed
Nov-13 @ 15:56 UTC
Wind
  • 150° at 8 KTS
Visibility
10 SM
Flight Rules
VFR
Cloud Levels
  • Clear skies
Temperature
C / 34°F
Dewpoint
-7°C / 19°F
Humidity
56%
Altimeter
30.34" Hg
Pressure
1027.42 hPa
Previous

2 hours ago

K1M4 131456Z AUTO 12004KT 10SM CLR M01/M07 A3035 RMK AO2 SLP945 T10061072 50006
Observed
Nov-13 @ 14:56 UTC
Wind
  • 120° at 4 KTS
Visibility
10 SM
Flight Rules
VFR
Cloud Levels
  • Clear skies
Temperature
-1°C / 30°F
Dewpoint
-7°C / 19°F
Humidity
64%
Altimeter
30.35" Hg
Pressure
1027.82 hPa
Previous

3 hours ago

K1M4 131356Z AUTO VRB03KT 10SM CLR M04/M08 A3035 RMK AO2 SLP961 T10441083
Observed
Nov-13 @ 13:56 UTC
Wind
  • Variable at 3 KTS
Visibility
10 SM
Flight Rules
VFR
Cloud Levels
  • Clear skies
Temperature
-4°C / 25°F
Dewpoint
-8°C / 18°F
Humidity
74%
Altimeter
30.35" Hg
Pressure
1027.82 hPa